createdAt,value
2023-02-14T00:00:58.249Z,-0.06
2023-02-14T00:03:25.147Z,-0.08
2023-02-14T00:05:51.895Z,-0.07
2023-02-14T00:08:18.673Z,-0.09
2023-02-14T00:10:46.114Z,-0.10
2023-02-14T00:13:12.821Z,-0.10
2023-02-14T00:15:39.683Z,-0.07
2023-02-14T00:18:06.618Z,-0.10
2023-02-14T00:20:33.406Z,-0.08
2023-02-14T00:23:01.055Z,-0.10
2023-02-14T00:25:27.890Z,-0.12
2023-02-14T00:27:55.689Z,-0.06
2023-02-14T00:30:22.548Z,-0.07
2023-02-14T00:32:49.600Z,-0.13
2023-02-14T00:35:16.742Z,-0.10
2023-02-14T00:37:43.643Z,-0.12
2023-02-14T00:40:10.629Z,-0.14
2023-02-14T00:42:37.444Z,-0.14
2023-02-14T00:45:04.537Z,-0.15
2023-02-14T00:47:31.579Z,-0.14
2023-02-14T00:50:02.838Z,-0.16
2023-02-14T00:52:31.599Z,-0.12
2023-02-14T00:54:58.763Z,-0.12
2023-02-14T00:57:25.554Z,-0.14
2023-02-14T00:59:52.392Z,-0.20
2023-02-14T01:02:19.201Z,-0.18
2023-02-14T01:04:46.104Z,-0.14
2023-02-14T01:07:12.939Z,-0.13
2023-02-14T01:09:39.751Z,-0.15
2023-02-14T01:12:06.771Z,-0.15
2023-02-14T01:14:33.575Z,-0.15
2023-02-14T01:17:00.687Z,-0.16
2023-02-14T01:19:27.441Z,-0.15
2023-02-14T01:21:54.186Z,-0.18
2023-02-14T01:24:21.123Z,-0.22
2023-02-14T01:26:48.324Z,-0.24
2023-02-14T01:29:15.202Z,-0.25
2023-02-14T01:31:42.409Z,-0.28
2023-02-14T01:34:09.442Z,-0.35
2023-02-14T01:36:39.331Z,-0.41
2023-02-14T01:39:13.599Z,-0.40
2023-02-14T01:41:42.391Z,-0.43
2023-02-14T01:44:15.156Z,-0.43
2023-02-14T01:46:44.158Z,-0.46
2023-02-14T01:49:18.892Z,-0.46
2023-02-14T01:51:52.979Z,-0.50
2023-02-14T01:54:23.073Z,-0.50
2023-02-14T01:56:54.291Z,-0.46
2023-02-14T01:59:25.119Z,-0.46
2023-02-14T02:01:53.447Z,-0.46
2023-02-14T02:04:28.559Z,-0.52
2023-02-14T02:06:59.830Z,-0.52
2023-02-14T02:09:49.313Z,-0.50
2023-02-14T02:12:16.324Z,-0.63
2023-02-14T02:14:44.258Z,-0.68
2023-02-14T02:17:38.352Z,-0.70
2023-02-14T02:20:20.652Z,-0.71
2023-02-14T02:22:59.768Z,-0.77
2023-02-14T02:25:50.914Z,-0.75
2023-02-14T02:28:39.055Z,-0.80
2023-02-14T02:31:17.740Z,-0.88
2023-02-14T02:33:47.408Z,-0.85
2023-02-14T02:36:28.508Z,-0.84
2023-02-14T02:39:16.556Z,-0.83
2023-02-14T02:41:52.214Z,-0.83
2023-02-14T02:44:53.212Z,-0.78
2023-02-14T02:47:47.033Z,-0.73
2023-02-14T02:50:48.182Z,-0.79
2023-02-14T02:53:43.342Z,-0.79
2023-02-14T02:56:41.156Z,-0.80
2023-02-14T02:59:22.579Z,-0.78
2023-02-14T03:01:55.521Z,-0.73
2023-02-14T03:04:41.738Z,-0.75
2023-02-14T03:07:27.127Z,-0.69
2023-02-14T03:09:57.882Z,-0.66
2023-02-14T03:12:42.318Z,-0.63
2023-02-14T03:15:22.655Z,-0.59
2023-02-14T03:18:19.277Z,-0.55
2023-02-14T03:21:01.131Z,-0.58
2023-02-14T03:23:29.970Z,-0.44
2023-02-14T03:26:20.287Z,-0.51
2023-02-14T03:28:54.116Z,-0.53
2023-02-14T03:31:43.956Z,-0.50
2023-02-14T03:34:38.561Z,-0.49
2023-02-14T03:37:20.584Z,-0.43
2023-02-14T03:40:03.677Z,-0.40
2023-02-14T03:42:43.500Z,-0.42
2023-02-14T03:45:16.732Z,-0.42
2023-02-14T03:47:44.981Z,-0.43
2023-02-14T03:50:20.767Z,-0.41
2023-02-14T03:52:51.995Z,-0.39
2023-02-14T03:55:27.330Z,-0.36
2023-02-14T03:58:04.557Z,-0.38
2023-02-14T04:00:35.540Z,-0.41
2023-02-14T04:03:11.917Z,-0.36
2023-02-14T04:05:43.645Z,-0.38
2023-02-14T04:08:12.283Z,-0.38
2023-02-14T04:10:40.256Z,-0.41
2023-02-14T04:13:07.034Z,-0.44
2023-02-14T04:15:34.084Z,-0.70
2023-02-14T04:18:19.340Z,-0.90
2023-02-14T04:20:46.155Z,-0.92
2023-02-14T04:23:13.007Z,-1.01
2023-02-14T04:25:42.968Z,-1.01
2023-02-14T04:28:09.852Z,-0.99
2023-02-14T04:30:36.747Z,-0.96
2023-02-14T04:33:04.776Z,-0.93
2023-02-14T04:35:31.563Z,-0.94
2023-02-14T04:37:58.379Z,-0.89
2023-02-14T04:40:25.166Z,-0.89
2023-02-14T04:42:52.107Z,-0.83
2023-02-14T04:45:19.483Z,-0.81
2023-02-14T04:47:46.604Z,-0.79
2023-02-14T04:50:13.968Z,-0.73
2023-02-14T04:52:41.248Z,-0.67
2023-02-14T04:55:09.698Z,-0.65
2023-02-14T04:57:36.710Z,-0.60
2023-02-14T05:00:05.088Z,-0.52
2023-02-14T05:02:33.562Z,-0.54
2023-02-14T05:05:00.336Z,-0.51
2023-02-14T05:07:27.188Z,-0.50
2023-02-14T05:09:54.035Z,-0.51
2023-02-14T05:12:21.087Z,-0.47
2023-02-14T05:14:47.995Z,-0.46
2023-02-14T05:17:14.852Z,-0.48
2023-02-14T05:19:41.698Z,-0.50
2023-02-14T05:22:08.531Z,-0.47
2023-02-14T05:24:35.326Z,-0.48
2023-02-14T05:27:02.203Z,-0.46
2023-02-14T05:29:29.184Z,-0.45
2023-02-14T05:31:56.094Z,-0.43
2023-02-14T05:34:22.944Z,-0.41
2023-02-14T05:36:49.762Z,-0.43
2023-02-14T05:39:16.682Z,-0.42
2023-02-14T05:41:43.409Z,-0.45
2023-02-14T05:44:10.185Z,-0.47
2023-02-14T05:46:37.032Z,-0.49
2023-02-14T05:49:04.079Z,-0.46
2023-02-14T05:51:31.225Z,-0.46
2023-02-14T05:54:00.015Z,-0.39
2023-02-14T05:56:27.288Z,-0.41
2023-02-14T05:58:54.099Z,-0.40
2023-02-14T06:01:22.057Z,-0.38
2023-02-14T06:03:48.852Z,-0.36
2023-02-14T06:06:15.595Z,-0.34
2023-02-14T06:08:42.546Z,-0.36
2023-02-14T06:11:09.352Z,-0.35
2023-02-14T06:13:36.123Z,-0.38
2023-02-14T06:16:04.990Z,-0.39
2023-02-14T06:18:31.735Z,-0.40
2023-02-14T06:20:58.995Z,-0.35
2023-02-14T06:23:26.180Z,-0.41
2023-02-14T06:25:53.014Z,-0.41
2023-02-14T06:28:20.300Z,-0.38
2023-02-14T06:30:47.782Z,-0.37
2023-02-14T06:33:14.691Z,-0.41
2023-02-14T06:35:41.708Z,-0.45
2023-02-14T06:38:08.607Z,-0.47
2023-02-14T06:40:35.526Z,-0.49
2023-02-14T06:43:02.266Z,-0.52
2023-02-14T06:45:29.156Z,-0.48
2023-02-14T06:47:55.971Z,-0.53
2023-02-14T06:50:22.851Z,-0.53
2023-02-14T06:52:51.437Z,-0.47
2023-02-14T06:55:18.880Z,-0.48
2023-02-14T06:57:45.768Z,-0.47
2023-02-14T07:00:14.882Z,-0.49
2023-02-14T07:02:42.126Z,-0.46
2023-02-14T07:05:09.288Z,-0.49
2023-02-14T07:07:36.114Z,-0.49
2023-02-14T07:10:02.970Z,-0.48
2023-02-14T07:12:30.104Z,-0.54
2023-02-14T07:14:56.919Z,-0.50
2023-02-14T07:17:23.984Z,-0.54
2023-02-14T07:19:50.894Z,-0.52
2023-02-14T07:22:17.674Z,-0.48
2023-02-14T07:24:44.444Z,-0.43
2023-02-14T07:27:11.296Z,-0.35
2023-02-14T07:29:38.368Z,-0.29
2023-02-14T07:32:05.508Z,-0.23
2023-02-14T07:34:33.075Z,-0.17
2023-02-14T07:37:01.453Z,-0.13
2023-02-14T07:39:28.347Z,-0.12
2023-02-14T07:41:55.271Z,-0.10
2023-02-14T07:44:22.108Z,-0.08
2023-02-14T07:46:49.004Z,-0.10
2023-02-14T07:49:15.876Z,-0.07
2023-02-14T07:51:42.652Z,-0.03
2023-02-14T07:54:09.478Z,0.01
2023-02-14T07:56:36.488Z,-0.02
2023-02-14T07:59:03.596Z,-0.08
2023-02-14T08:01:30.743Z,-0.07
2023-02-14T08:03:57.615Z,0.02
2023-02-14T08:06:26.097Z,0.04
2023-02-14T08:08:53.249Z,0.10
2023-02-14T08:11:38.405Z,0.13
2023-02-14T08:14:05.825Z,0.18
2023-02-14T08:16:34.314Z,0.20
2023-02-14T08:19:02.058Z,0.22
2023-02-14T08:21:29.041Z,0.22
2023-02-14T08:23:56.791Z,0.24
2023-02-14T08:26:23.670Z,0.28
2023-02-14T08:28:50.604Z,0.36
2023-02-14T08:31:36.325Z,0.44
2023-02-14T08:34:05.443Z,0.35
2023-02-14T08:36:33.349Z,0.35
2023-02-14T08:39:01.113Z,0.34
2023-02-14T08:41:27.902Z,0.08
2023-02-14T08:43:54.806Z,-0.12
2023-02-14T08:46:21.626Z,-0.29
2023-02-14T08:48:50.091Z,-0.31
2023-02-14T08:51:17.466Z,-0.33
2023-02-14T08:53:44.313Z,-0.33
2023-02-14T08:56:13.729Z,-0.30
2023-02-14T08:58:40.819Z,-0.33
2023-02-14T09:01:16.884Z,-0.30
2023-02-14T09:03:44.462Z,-0.33
2023-02-14T09:06:14.604Z,-0.33
2023-02-14T09:08:41.352Z,-0.28
2023-02-14T09:11:15.448Z,-0.28
2023-02-14T09:13:43.130Z,-0.31
2023-02-14T09:16:12.076Z,-0.31
2023-02-14T09:18:39.762Z,-0.35
2023-02-14T09:21:11.545Z,-0.34
2023-02-14T09:23:38.747Z,-0.31
2023-02-14T09:26:08.185Z,-0.18
2023-02-14T09:28:36.114Z,-0.10
2023-02-14T09:31:24.231Z,0.06
2023-02-14T09:34:10.511Z,0.06
2023-02-14T09:36:55.938Z,0.07
2023-02-14T09:39:22.747Z,0.06
2023-02-14T09:42:29.218Z,0.21
2023-02-14T09:45:04.953Z,0.16
2023-02-14T09:47:56.529Z,0.19
2023-02-14T09:53:36.963Z,0.28
2023-02-14T09:56:17.620Z,0.28
2023-02-14T09:58:51.513Z,0.23
2023-02-14T10:01:36.702Z,0.24
2023-02-14T10:04:18.689Z,0.27
2023-02-14T10:06:51.502Z,0.22
2023-02-14T10:09:42.631Z,0.27
2023-02-14T10:12:24.153Z,0.25
2023-02-14T10:14:55.554Z,0.34
2023-02-14T10:17:31.416Z,0.40
2023-02-14T10:20:03.000Z,0.48
2023-02-14T10:22:46.196Z,0.60
2023-02-14T10:25:26.604Z,0.61
2023-02-14T10:27:57.918Z,0.47
2023-02-14T10:30:25.194Z,0.39
2023-02-14T10:33:17.955Z,0.38
2023-02-14T10:35:47.670Z,0.30
2023-02-14T10:38:26.803Z,0.27
2023-02-14T10:41:05.064Z,0.30
2023-02-14T10:43:53.352Z,0.41
2023-02-14T10:46:48.233Z,0.30
2023-02-14T10:49:48.835Z,0.33
2023-02-14T10:52:21.757Z,0.25
2023-02-14T10:55:01.425Z,0.28
2023-02-14T10:57:48.256Z,0.57
2023-02-14T11:00:29.477Z,0.51
2023-02-14T11:03:02.652Z,0.56
2023-02-14T11:05:41.309Z,0.66
2023-02-14T11:08:28.780Z,0.70
2023-02-14T11:11:27.676Z,0.64
2023-02-14T11:13:54.568Z,0.48
2023-02-14T11:16:39.975Z,0.59
2023-02-14T11:19:15.725Z,0.52
2023-02-14T11:21:45.482Z,0.40
2023-02-14T11:24:32.631Z,0.39
2023-02-14T11:27:02.979Z,0.33
2023-02-14T11:29:31.487Z,0.31
2023-02-14T11:32:08.029Z,0.24
2023-02-14T11:34:40.150Z,0.16
2023-02-14T11:37:26.941Z,0.21
2023-02-14T11:39:56.375Z,0.09
2023-02-14T11:42:44.122Z,0.13
2023-02-14T11:45:34.596Z,0.20
2023-02-14T11:48:19.942Z,0.08
2023-02-14T11:50:58.478Z,0.09
2023-02-14T11:53:28.079Z,0.09
2023-02-14T11:55:57.092Z,0.21
2023-02-14T11:58:55.609Z,0.37
2023-02-14T12:01:29.927Z,0.36
2023-02-14T12:04:00.164Z,0.37
2023-02-14T12:06:30.232Z,0.39
2023-02-14T12:09:27.053Z,0.53
2023-02-14T12:12:15.538Z,0.52
2023-02-14T12:14:42.583Z,0.61
2023-02-14T12:17:13.297Z,0.69
2023-02-14T12:19:42.845Z,0.63
2023-02-14T12:22:15.894Z,0.64
2023-02-14T12:25:11.551Z,0.65
2023-02-14T12:27:43.194Z,0.53
2023-02-14T12:30:15.707Z,0.46
2023-02-14T12:32:51.569Z,0.51
2023-02-14T12:35:30.123Z,0.48
2023-02-14T12:38:34.228Z,0.48
2023-02-14T12:41:39.902Z,0.53
2023-02-14T12:44:30.514Z,0.56
2023-02-14T12:47:15.187Z,0.46
2023-02-14T12:49:59.398Z,0.35
2023-02-14T12:52:45.146Z,0.37
2023-02-14T12:55:44.089Z,0.33
2023-02-14T12:58:46.264Z,0.29
2023-02-14T13:01:21.744Z,0.28
2023-02-14T13:04:01.536Z,0.31
2023-02-14T13:06:33.596Z,0.30
2023-02-14T13:09:37.959Z,0.32
2023-02-14T13:12:37.227Z,0.30
2023-02-14T13:15:15.028Z,0.25
2023-02-14T13:17:59.202Z,0.23
2023-02-14T13:20:44.095Z,0.27
2023-02-14T13:23:37.234Z,0.23
2023-02-14T13:26:14.518Z,0.12
2023-02-14T13:29:04.471Z,0.14
2023-02-14T13:31:32.040Z,0.15
2023-02-14T13:34:09.919Z,0.19
2023-02-14T13:36:37.497Z,0.12
2023-02-14T13:39:04.935Z,0.15
2023-02-14T13:41:32.308Z,0.11
2023-02-14T13:44:05.460Z,0.13
2023-02-14T13:46:32.238Z,0.05
2023-02-14T13:49:03.622Z,0.07
2023-02-14T13:51:51.221Z,0.08
2023-02-14T13:54:33.368Z,0.06
2023-02-14T13:57:02.642Z,0.07
2023-02-14T14:02:50.157Z,0.11
2023-02-14T14:05:53.571Z,0.09
2023-02-14T14:08:20.505Z,0.02
2023-02-14T14:10:50.141Z,0.05
2023-02-14T14:13:42.080Z,0.07
2023-02-14T14:16:24.480Z,0.04
2023-02-14T14:22:15.731Z,-0.03
2023-02-14T14:24:54.176Z,-0.05
2023-02-14T14:27:32.197Z,-0.08
2023-02-14T14:30:05.193Z,-0.10
2023-02-14T14:32:39.011Z,-0.10
2023-02-14T14:35:19.453Z,-0.10
2023-02-14T14:37:51.566Z,-0.12
2023-02-14T14:40:29.978Z,-0.14
2023-02-14T14:43:01.873Z,-0.20
2023-02-14T14:45:31.974Z,-0.20
2023-02-14T14:48:03.159Z,-0.28
2023-02-14T14:50:36.846Z,-0.21
2023-02-14T14:53:19.698Z,-0.25
2023-02-14T14:55:51.946Z,-0.27
2023-02-14T14:58:48.558Z,-0.19
2023-02-14T15:01:37.478Z,-0.21
2023-02-14T15:04:12.619Z,-0.23
2023-02-14T15:06:39.620Z,-0.25
2023-02-14T15:09:32.063Z,-0.14
2023-02-14T15:12:20.711Z,-0.22
2023-02-14T15:14:54.581Z,-0.23
2023-02-14T15:17:27.319Z,-0.16
2023-02-14T15:20:00.960Z,-0.21
2023-02-14T15:22:41.666Z,-0.20
2023-02-14T15:25:17.327Z,-0.22
2023-02-14T15:27:44.327Z,-0.24
2023-02-14T15:30:20.405Z,-0.18
2023-02-14T15:32:49.590Z,-0.23
2023-02-14T15:35:19.426Z,-0.27
2023-02-14T15:37:47.442Z,-0.28
2023-02-14T15:40:42.036Z,-0.22
2023-02-14T15:43:18.296Z,-0.24
2023-02-14T15:45:48.256Z,-0.33
2023-02-14T15:48:24.388Z,-0.31
2023-02-14T15:50:54.604Z,-0.38
2023-02-14T15:53:32.680Z,-0.42
2023-02-14T15:56:05.837Z,-0.39
2023-02-14T15:58:35.497Z,-0.47
2023-02-14T16:01:03.533Z,-0.53
2023-02-14T16:03:35.981Z,-0.56
2023-02-14T16:06:07.282Z,-0.55
2023-02-14T16:08:41.188Z,-0.53
2023-02-14T16:11:27.175Z,-0.54
2023-02-14T16:13:54.303Z,-0.55
2023-02-14T16:16:21.822Z,-0.59
2023-02-14T16:18:54.252Z,-0.54
2023-02-14T16:21:21.113Z,-0.61
2023-02-14T16:24:10.765Z,-0.53
2023-02-14T16:26:43.794Z,-0.63
2023-02-14T16:29:20.966Z,-0.63
2023-02-14T16:32:15.191Z,-0.56
2023-02-14T16:34:43.087Z,-0.60
2023-02-14T16:37:40.627Z,-0.61
2023-02-14T16:40:14.226Z,-0.59
2023-02-14T16:42:41.648Z,-0.64
2023-02-14T16:45:16.437Z,-0.63
2023-02-14T16:47:43.591Z,-0.60
2023-02-14T16:50:10.963Z,-0.54
2023-02-14T16:52:38.011Z,-0.58
2023-02-14T16:55:07.057Z,-0.61
2023-02-14T16:57:38.492Z,-0.63
2023-02-14T17:00:06.931Z,-0.70
2023-02-14T17:02:34.840Z,-0.69
2023-02-14T17:05:01.749Z,-0.67
2023-02-14T17:07:32.319Z,-0.68
2023-02-14T17:10:05.343Z,-0.70
2023-02-14T17:12:36.447Z,-0.69
2023-02-14T17:15:07.949Z,-0.70
2023-02-14T17:17:36.479Z,-0.72
2023-02-14T17:20:05.567Z,-0.69
2023-02-14T17:22:34.230Z,-0.69
2023-02-14T17:25:01.050Z,-0.69
2023-02-14T17:27:27.779Z,-0.64
2023-02-14T17:29:54.595Z,-0.64
2023-02-14T17:32:21.605Z,-0.68
2023-02-14T17:34:49.411Z,-0.65
2023-02-14T17:37:19.004Z,-0.68
2023-02-14T17:39:46.057Z,-0.63
2023-02-14T17:42:12.975Z,-0.66
2023-02-14T17:44:39.708Z,-0.70
2023-02-14T17:47:06.531Z,-0.71
2023-02-14T17:49:33.475Z,-0.65
2023-02-14T17:52:00.269Z,-0.69
2023-02-14T17:54:27.055Z,-0.72
2023-02-14T17:56:53.875Z,-0.69
2023-02-14T17:59:20.721Z,-0.67
2023-02-14T18:01:47.582Z,-0.64
2023-02-14T18:04:14.554Z,-0.67
2023-02-14T18:06:42.924Z,-0.69
2023-02-14T18:09:10.436Z,-0.68
2023-02-14T18:11:39.391Z,-0.69
2023-02-14T18:14:06.750Z,-0.76
2023-02-14T18:16:34.159Z,-0.77
2023-02-14T18:19:05.326Z,-0.67
2023-02-14T18:21:37.161Z,-0.69
2023-02-14T18:24:04.199Z,-0.67
2023-02-14T18:26:31.733Z,-0.73
2023-02-14T18:29:06.473Z,-0.86
2023-02-14T18:31:34.756Z,-0.86
2023-02-14T18:34:01.588Z,-0.87
2023-02-14T18:36:29.894Z,-0.87
2023-02-14T18:38:56.786Z,-0.87
2023-02-14T18:41:24.742Z,-0.88
2023-02-14T18:43:52.082Z,-1.02
2023-02-14T18:46:25.658Z,-1.05
2023-02-14T18:48:52.528Z,-1.11
2023-02-14T18:51:22.559Z,-1.17
2023-02-14T18:53:52.333Z,-1.22
2023-02-14T18:56:22.829Z,-1.29
2023-02-14T18:58:52.878Z,-1.35
2023-02-14T19:01:25.098Z,-1.35
2023-02-14T19:03:53.923Z,-1.41
2023-02-14T19:06:21.755Z,-1.45
2023-02-14T19:08:49.305Z,-1.47
2023-02-14T19:11:19.442Z,-1.47
2023-02-14T19:13:55.259Z,-1.47
2023-02-14T19:16:30.213Z,-1.48
2023-02-14T19:18:59.010Z,-1.49
2023-02-14T19:21:27.843Z,-1.52
2023-02-14T19:23:58.612Z,-1.59
2023-02-14T19:26:29.614Z,-1.56
2023-02-14T19:28:59.120Z,-1.58
2023-02-14T19:31:26.748Z,-1.64
2023-02-14T19:33:54.341Z,-1.64
2023-02-14T19:36:22.529Z,-1.68
2023-02-14T19:38:51.751Z,-1.74
2023-02-14T19:41:27.678Z,-1.74
2023-02-14T19:43:59.035Z,-1.77
2023-02-14T19:46:27.495Z,-1.83
2023-02-14T19:48:56.018Z,-1.84
2023-02-14T19:51:34.250Z,-1.85
2023-02-14T19:54:05.588Z,-1.90
2023-02-14T19:56:34.781Z,-1.96
2023-02-14T19:59:07.696Z,-2.00
2023-02-14T20:01:41.506Z,-2.04
2023-02-14T20:04:11.298Z,-2.09
2023-02-14T20:06:38.469Z,-2.13
2023-02-14T20:09:08.997Z,-2.07
2023-02-14T20:11:39.809Z,-2.00
2023-02-14T20:14:07.614Z,-2.03
2023-02-14T20:16:36.573Z,-2.13
2023-02-14T20:19:10.089Z,-2.16
2023-02-14T20:21:36.832Z,-2.18
2023-02-14T20:24:04.783Z,-2.24
2023-02-14T20:26:33.510Z,-2.24
2023-02-14T20:29:03.834Z,-2.24
2023-02-14T20:31:32.283Z,-2.22
2023-02-14T20:33:59.448Z,-2.23
2023-02-14T20:36:29.561Z,-2.23
2023-02-14T20:38:58.140Z,-2.27
2023-02-14T20:41:26.142Z,-2.33
2023-02-14T20:43:53.241Z,-2.38
2023-02-14T20:46:21.145Z,-2.28
2023-02-14T20:48:48.702Z,-2.37
2023-02-14T20:51:17.845Z,-2.36
2023-02-14T20:53:45.431Z,-2.41
2023-02-14T20:56:13.131Z,-2.38
2023-02-14T20:58:40.868Z,-2.42
2023-02-14T21:01:18.054Z,-2.33
2023-02-14T21:03:47.094Z,-2.33
2023-02-14T21:06:15.413Z,-2.33
2023-02-14T21:08:45.345Z,-2.44
2023-02-14T21:11:14.788Z,-2.43
2023-02-14T21:13:42.088Z,-2.39
2023-02-14T21:16:11.624Z,-2.36
2023-02-14T21:18:40.974Z,-2.41
2023-02-14T21:21:13.049Z,-2.40
2023-02-14T21:23:40.927Z,-2.43
2023-02-14T21:26:08.276Z,-2.44
2023-02-14T21:28:35.543Z,-2.50
2023-02-14T21:31:08.228Z,-2.45
2023-02-14T21:33:36.091Z,-2.43
2023-02-14T21:36:12.713Z,-2.42
2023-02-14T21:38:39.522Z,-2.47
2023-02-14T21:41:08.780Z,-2.44
2023-02-14T21:43:39.070Z,-2.47
2023-02-14T21:46:07.856Z,-2.51
2023-02-14T21:48:53.545Z,-2.50
2023-02-14T21:51:21.375Z,-2.51
2023-02-14T21:53:48.206Z,-2.52
2023-02-14T21:56:19.603Z,-2.50
2023-02-14T21:58:52.067Z,-2.47
2023-02-14T22:01:25.675Z,-2.47
2023-02-14T22:03:53.206Z,-2.47
2023-02-14T22:06:22.607Z,-2.50
2023-02-14T22:08:54.366Z,-2.55
2023-02-14T22:11:22.758Z,-2.49
2023-02-14T22:13:49.794Z,-2.61
2023-02-14T22:16:18.914Z,-2.63
2023-02-14T22:18:47.989Z,-2.70
2023-02-14T22:21:18.678Z,-2.67
2023-02-14T22:23:45.734Z,-2.67
2023-02-14T22:26:16.640Z,-2.69
2023-02-14T22:28:45.321Z,-2.67
2023-02-14T22:31:12.889Z,-2.71
2023-02-14T22:33:40.197Z,-2.73
2023-02-14T22:36:08.743Z,-2.73
2023-02-14T22:38:36.535Z,-2.73
2023-02-14T22:41:11.467Z,-2.60
2023-02-14T22:43:39.713Z,-2.72
2023-02-14T22:46:10.954Z,-2.70
2023-02-14T22:48:38.608Z,-2.72
2023-02-14T22:51:21.101Z,-2.66
2023-02-14T22:53:48.972Z,-2.69
2023-02-14T22:56:21.614Z,-2.69
2023-02-14T22:58:48.532Z,-2.73
2023-02-14T23:01:21.009Z,-2.78
2023-02-14T23:03:49.039Z,-2.79
2023-02-14T23:06:16.056Z,-2.79
2023-02-14T23:08:45.142Z,-2.78
2023-02-14T23:11:14.982Z,-2.75
2023-02-14T23:14:00.484Z,-2.79
2023-02-14T23:16:45.763Z,-2.79
2023-02-14T23:19:35.911Z,-2.77
2023-02-14T23:22:12.431Z,-2.69
2023-02-14T23:24:39.735Z,-2.81
2023-02-14T23:27:08.350Z,-2.77
2023-02-14T23:29:36.538Z,-2.82
2023-02-14T23:32:04.319Z,-2.78
2023-02-14T23:34:33.556Z,-2.80
2023-02-14T23:37:00.475Z,-2.74
2023-02-14T23:39:27.386Z,-2.86
2023-02-14T23:41:54.342Z,-2.84
2023-02-14T23:44:22.650Z,-2.86
2023-02-14T23:46:52.006Z,-2.82
2023-02-14T23:49:19.326Z,-2.82
2023-02-14T23:51:47.634Z,-2.82
2023-02-14T23:54:14.898Z,-2.83
2023-02-14T23:56:43.425Z,-2.86
2023-02-14T23:59:10.454Z,-2.87
